Terminal Aerodrome Forecast
Issued by NWS

Home | Current Version | Previous Version | Text Only | Print | Product List | Glossary On
Versions: 1 2 3 4 5 6 7 8 9 10 11 12 13 14 15
000
FTUS43 KEAX 182300
TAFMKC
TAF
KMKC 182327Z 1900/1924 07004KT P6SM OVC012
     FM190200 VRB03KT 4SM BR OVC007
     FM191600 04003KT P6SM OVC012=

USA.gov is the U.S. government's official web portal to all federal, state and local government web resources and services.